Time;durP1;ratioP1;P1;durP2;ratioP2;P2;SDS_P1;SDS_P2;PMS_P1;PMS_P2;Temp;Humidity;BMP_temperature;BMP_pressure;BME280_temperature;BME280_humidity;BME280_pressure;Samples;Min_cycle;Max_cycle;Signal;HPM_P1;HPM_P2
2023/04/26 00:03:40;;;;;;;11.18;4.20;;;;;;;-146.18;100.00;67994.34;10113770;28;20053;-71
2023/04/26 00:08:37;;;;;;;10.27;4.63;;;;;;;-146.18;100.00;67994.34;10110363;28;20079;-71
2023/04/26 00:13:34;;;;;;;9.73;4.30;;;;;;;-146.18;100.00;67994.34;10111352;28;20489;-72
2023/04/26 00:18:30;;;;;;;7.30;4.13;;;;;;;-146.18;100.00;67994.34;10106791;28;20404;-71
2023/04/26 00:23:27;;;;;;;9.10;3.78;;;;;;;-146.18;100.00;67994.34;10112427;28;20453;-71
2023/04/26 00:28:23;;;;;;;9.15;4.10;;;;;;;-146.18;100.00;67994.34;10114781;28;20046;-69
2023/04/26 00:33:20;;;;;;;6.07;3.60;;;;;;;-146.18;100.00;67994.34;10105968;28;20497;-70
2023/04/26 00:38:16;;;;;;;6.60;3.55;;;;;;;-146.18;100.00;67994.34;10112179;28;20082;-70
2023/04/26 00:43:13;;;;;;;11.57;4.22;;;;;;;-146.18;100.00;67994.34;10111314;28;20065;-70
2023/04/26 00:48:10;;;;;;;14.05;4.10;;;;;;;-146.18;100.00;67994.34;10109731;28;20046;-70
2023/04/26 00:53:08;;;;;;;8.43;3.78;;;;;;;-146.18;100.00;67994.34;10108149;28;20047;-70
2023/04/26 00:58:04;;;;;;;10.85;4.03;;;;;;;-146.18;100.00;67994.34;10098819;28;20478;-71
2023/04/26 01:03:02;;;;;;;10.60;4.28;;;;;;;-146.18;100.00;67994.34;10099204;28;20094;-70
2023/04/26 01:08:01;;;;;;;10.70;5.00;;;;;;;-146.18;100.00;67994.34;10107264;28;20113;-70
2023/04/26 01:12:58;;;;;;;9.55;3.88;;;;;;;-146.18;100.00;67994.34;10109570;28;20066;-70
2023/04/26 01:17:56;;;;;;;8.77;3.95;;;;;;;-146.18;100.00;67994.34;10090359;28;20101;-71
2023/04/26 01:22:52;;;;;;;21.48;4.78;;;;;;;-146.18;100.00;67994.34;10110111;28;20102;-72
2023/04/26 01:27:49;;;;;;;5.57;3.60;;;;;;;-146.18;100.00;67994.34;10105918;28;20129;-72
2023/04/26 01:32:46;;;;;;;10.80;4.20;;;;;;;-146.18;100.00;67994.34;10096264;28;20593;-68
2023/04/26 01:37:43;;;;;;;9.82;5.07;;;;;;;-146.18;100.00;67994.34;10111554;28;20039;-68
2023/04/26 01:42:39;;;;;;;11.30;4.35;;;;;;;-146.18;100.00;67994.34;10101178;28;20068;-67
2023/04/26 01:47:36;;;;;;;12.48;5.18;;;;;;;-146.18;100.00;67994.34;10101665;28;20063;-68
2023/04/26 01:52:32;;;;;;;8.80;4.72;;;;;;;-146.18;100.00;67994.34;10105903;28;20046;-67
2023/04/26 01:57:28;;;;;;;14.48;4.90;;;;;;;-146.18;100.00;67994.34;10100417;28;20625;-69
2023/04/26 02:02:25;;;;;;;9.82;4.72;;;;;;;-146.18;100.00;67994.34;10104184;28;20248;-69
2023/04/26 02:07:21;;;;;;;16.13;6.35;;;;;;;-146.18;100.00;67994.34;10103348;28;20592;-69
2023/04/26 02:12:18;;;;;;;10.15;5.10;;;;;;;-146.18;100.00;67994.34;10107271;28;20139;-69
2023/04/26 02:17:15;;;;;;;14.05;5.70;;;;;;;-146.18;100.00;67994.34;10104861;28;20062;-69
2023/04/26 02:22:12;;;;;;;7.57;4.68;;;;;;;-146.18;100.00;67994.34;10106199;28;20522;-69
2023/04/26 02:27:08;;;;;;;10.85;4.15;;;;;;;-146.18;100.00;67994.34;10101828;28;20154;-69
2023/04/26 02:32:05;;;;;;;8.73;4.93;;;;;;;-146.18;100.00;67994.34;10104691;28;20133;-69
2023/04/26 02:37:01;;;;;;;8.55;5.13;;;;;;;-146.18;100.00;67994.34;10104015;28;20073;-69
2023/04/26 02:41:58;;;;;;;8.70;5.32;;;;;;;-146.18;100.00;67994.34;10097623;28;20417;-68
2023/04/26 02:46:54;;;;;;;14.70;6.40;;;;;;;-146.18;100.00;67994.34;10102608;28;20425;-68
2023/04/26 02:51:51;;;;;;;9.25;5.13;;;;;;;-146.18;100.00;67994.34;10109595;28;20114;-68
2023/04/26 02:56:47;;;;;;;8.70;4.93;;;;;;;-146.18;100.00;67994.34;10097050;28;20082;-67
2023/04/26 03:01:44;;;;;;;8.27;4.47;;;;;;;-146.18;100.00;67994.34;10100111;28;20066;-66
2023/04/26 03:06:41;;;;;;;8.95;4.70;;;;;;;-146.18;100.00;67994.34;10094233;28;20047;-70
2023/04/26 03:11:37;;;;;;;8.50;5.00;;;;;;;-146.18;100.00;67994.34;10091125;28;20050;-68
2023/04/26 03:16:41;;;;;;;15.50;5.30;;;;;;;-146.18;100.00;67994.34;10099800;28;20135;-68
2023/04/26 03:21:37;;;;;;;12.57;5.43;;;;;;;-146.18;100.00;67994.34;10101742;28;20055;-69
2023/04/26 03:26:34;;;;;;;14.73;5.30;;;;;;;-146.18;100.00;67994.34;10102753;28;20050;-68
2023/04/26 03:31:30;;;;;;;13.57;5.80;;;;;;;-146.18;100.00;67994.34;10105998;28;20047;-68
2023/04/26 03:36:27;;;;;;;13.18;6.28;;;;;;;-146.18;100.00;67994.34;10098441;28;20046;-68
2023/04/26 03:41:24;;;;;;;14.90;6.30;;;;;;;-146.18;100.00;67994.34;10090464;28;20082;-73
2023/04/26 03:46:20;;;;;;;12.98;6.53;;;;;;;-146.18;100.00;67994.34;10098018;28;20054;-75
2023/04/26 03:51:17;;;;;;;10.75;5.93;;;;;;;-146.18;100.00;67994.34;10095302;28;20057;-75
2023/04/26 03:56:14;;;;;;;9.60;5.70;;;;;;;-146.18;100.00;67994.34;10091508;28;20050;-74
2023/04/26 04:01:11;;;;;;;12.57;6.95;;;;;;;-146.18;100.00;67994.34;10090484;28;20141;-73
2023/04/26 04:06:11;;;;;;;10.30;6.82;;;;;;;-146.18;100.00;67994.34;10112705;28;20061;-75
2023/04/26 04:11:07;;;;;;;9.05;5.30;;;;;;;-146.18;100.00;67994.34;10091038;28;20073;-76
2023/04/26 04:16:09;;;;;;;12.70;6.03;;;;;;;-146.18;100.00;67994.34;10090529;28;20438;-75
2023/04/26 04:21:05;;;;;;;18.23;6.53;;;;;;;-146.18;100.00;67994.34;10086377;28;20051;-75
2023/04/26 04:26:02;;;;;;;9.05;6.43;;;;;;;-146.18;100.00;67994.34;10107212;28;20060;-75
2023/04/26 04:30:59;;;;;;;12.15;6.10;;;;;;;-146.18;100.00;67994.34;10104821;28;20051;-76
2023/04/26 04:35:57;;;;;;;9.10;6.30;;;;;;;-146.18;100.00;67994.34;10095815;28;20126;-74
2023/04/26 04:40:53;;;;;;;11.93;7.05;;;;;;;-146.18;100.00;67994.34;10092227;28;20548;-76
2023/04/26 04:45:50;;;;;;;11.32;6.63;;;;;;;-146.18;100.00;67994.34;10099771;28;20046;-76
2023/04/26 04:50:48;;;;;;;13.10;6.15;;;;;;;-146.18;100.00;67994.34;10096808;28;20505;-75
2023/04/26 04:55:44;;;;;;;10.95;6.57;;;;;;;-146.18;100.00;67994.34;10108469;28;20551;-76
2023/04/26 05:00:42;;;;;;;18.80;7.75;;;;;;;-146.18;100.00;67994.34;10103163;28;20523;-75
2023/04/26 05:05:38;;;;;;;11.65;8.02;;;;;;;-146.18;100.00;67994.34;10095220;28;20526;-75
2023/04/26 05:10:35;;;;;;;9.85;8.15;;;;;;;-146.18;100.00;67994.34;10103196;28;20049;-75
2023/04/26 05:15:31;;;;;;;10.25;8.45;;;;;;;-146.18;100.00;67994.34;10093032;28;20098;-75
2023/04/26 05:20:31;;;;;;;11.10;7.63;;;;;;;-146.18;100.00;67994.34;10103651;28;20564;-75
2023/04/26 05:25:27;;;;;;;9.13;7.57;;;;;;;-146.18;100.00;67994.34;10099600;28;20134;-75
2023/04/26 05:30:24;;;;;;;11.43;8.25;;;;;;;-146.18;100.00;67994.34;10094628;28;20417;-75
2023/04/26 05:35:20;;;;;;;12.30;8.20;;;;;;;-146.18;100.00;67994.34;10089336;28;20094;-75
2023/04/26 05:40:17;;;;;;;9.00;8.15;;;;;;;-146.18;100.00;67994.34;10101140;28;20065;-75
2023/04/26 05:45:13;;;;;;;13.38;7.95;;;;;;;-146.18;100.00;67994.34;10107678;28;20819;-75
2023/04/26 05:50:10;;;;;;;11.68;7.20;;;;;;;-146.18;100.00;67994.34;10102580;28;20133;-75
2023/04/26 05:55:07;;;;;;;12.20;7.22;;;;;;;-146.18;100.00;67994.34;10097145;28;20078;-76
2023/04/26 06:00:04;;;;;;;10.90;7.70;;;;;;;-146.18;100.00;67994.34;10097870;28;20134;-75
2023/04/26 06:05:01;;;;;;;15.52;8.77;;;;;;;-146.18;100.00;67994.34;10096838;28;20117;-75
2023/04/26 06:09:59;;;;;;;13.00;7.20;;;;;;;-146.18;100.00;67994.34;10089727;28;20055;-75
2023/04/26 06:14:56;;;;;;;13.30;7.93;;;;;;;-146.18;100.00;67994.34;10094201;28;20501;-75
2023/04/26 06:19:52;;;;;;;11.45;7.55;;;;;;;-146.18;100.00;67994.34;10093770;28;20070;-75
2023/04/26 06:24:49;;;;;;;12.40;7.28;;;;;;;-146.18;100.00;67994.34;10104891;28;20106;-75
2023/04/26 06:29:45;;;;;;;13.60;7.53;;;;;;;-146.18;100.00;67994.34;10098304;28;20524;-75
2023/04/26 06:34:44;;;;;;;10.63;7.03;;;;;;;-146.18;100.00;67994.34;10099844;28;20509;-75
2023/04/26 06:39:40;;;;;;;17.10;7.93;;;;;;;-146.18;100.00;67994.34;10095144;28;20137;-75
2023/04/26 06:44:37;;;;;;;13.85;7.47;;;;;;;-146.18;100.00;67994.34;10105506;28;20505;-75
2023/04/26 06:49:34;;;;;;;10.32;6.80;;;;;;;-146.18;100.00;67994.34;10094338;28;20043;-75
2023/04/26 06:54:31;;;;;;;12.93;7.68;;;;;;;-146.18;100.00;67994.34;10100090;28;20496;-75
2023/04/26 06:59:31;;;;;;;10.13;7.13;;;;;;;-146.18;100.00;67994.34;10097290;28;20042;-75
2023/04/26 07:04:27;;;;;;;10.57;8.00;;;;;;;-146.18;100.00;67994.34;10100975;28;20070;-75
2023/04/26 07:09:24;;;;;;;13.63;7.20;;;;;;;-146.18;100.00;67994.34;10098074;28;20043;-75
2023/04/26 07:14:20;;;;;;;12.65;7.88;;;;;;;-146.18;100.00;67994.34;10106560;28;20142;-75
2023/04/26 07:19:17;;;;;;;11.02;7.05;;;;;;;-146.18;100.00;67994.34;10104227;28;20051;-75
2023/04/26 07:24:13;;;;;;;11.82;6.55;;;;;;;-146.18;100.00;67994.34;10106529;28;20117;-75
2023/04/26 07:29:10;;;;;;;19.00;9.02;;;;;;;-146.18;100.00;67994.34;10099517;28;20051;-75
2023/04/26 07:34:07;;;;;;;11.63;6.07;;;;;;;-146.18;100.00;67994.34;10093369;28;20051;-75
2023/04/26 07:39:08;;;;;;;9.68;5.93;;;;;;;-146.18;100.00;67994.34;10092440;28;20078;-75
2023/04/26 07:44:05;;;;;;;10.35;5.93;;;;;;;-146.18;100.00;67994.34;10105273;28;20049;-76
2023/04/26 07:49:01;;;;;;;9.55;6.63;;;;;;;-146.18;100.00;67994.34;10102430;28;20047;-75
2023/04/26 07:53:58;;;;;;;6.88;6.05;;;;;;;-146.18;100.00;67994.34;10104742;28;20067;-75
2023/04/26 07:58:55;;;;;;;12.77;6.45;;;;;;;-146.18;100.00;67994.34;10111213;28;20046;-76
2023/04/26 08:03:51;;;;;;;11.45;6.40;;;;;;;-146.18;100.00;67994.34;10097259;28;20049;-76
2023/04/26 08:08:49;;;;;;;7.65;4.95;;;;;;;-146.18;100.00;67994.34;10103542;28;20424;-74
2023/04/26 08:13:46;;;;;;;7.78;5.82;;;;;;;-146.18;100.00;67994.34;10103226;28;20500;-75
2023/04/26 08:18:43;;;;;;;6.50;5.75;;;;;;;-146.18;100.00;67994.34;10101395;28;20043;-75
2023/04/26 08:23:42;;;;;;;13.63;6.40;;;;;;;-146.18;100.00;67994.34;10109860;28;20046;-75
2023/04/26 08:28:41;;;;;;;7.35;5.88;;;;;;;-146.18;100.00;67994.34;10105249;28;20234;-75
2023/04/26 08:33:38;;;;;;;6.43;5.22;;;;;;;-146.18;100.00;67994.34;10102820;28;20504;-75
2023/04/26 08:38:35;;;;;;;13.00;6.30;;;;;;;-146.18;100.00;67994.34;10097013;28;20665;-75
2023/04/26 08:43:35;;;;;;;8.90;5.47;;;;;;;-146.18;100.00;67994.34;10109688;28;20057;-75
2023/04/26 08:48:35;;;;;;;14.27;6.05;;;;;;;-146.18;100.00;67994.34;10100950;28;20071;-76
2023/04/26 08:53:34;;;;;;;11.90;6.90;;;;;;;-146.18;100.00;67994.34;10102985;28;20046;-75
2023/04/26 08:58:31;;;;;;;12.20;6.68;;;;;;;-146.18;100.00;67994.34;10113148;28;20055;-76
2023/04/26 09:03:27;;;;;;;12.68;6.75;;;;;;;-146.18;100.00;67994.34;10099517;28;20053;-75
2023/04/26 09:08:24;;;;;;;15.65;5.97;;;;;;;-146.18;100.00;67994.34;10102816;28;20054;-75
2023/04/26 09:13:28;;;;;;;10.23;6.25;;;;;;;-146.18;100.00;67994.34;10104117;28;20078;-75
2023/04/26 09:18:25;;;;;;;9.32;6.95;;;;;;;-146.18;100.00;67994.34;10102115;28;20078;-76
2023/04/26 09:23:22;;;;;;;13.02;6.38;;;;;;;-146.18;100.00;67994.34;10094068;28;20711;-76
2023/04/26 09:28:21;;;;;;;12.13;6.45;;;;;;;-146.18;100.00;67994.34;10097476;28;20077;-75
2023/04/26 09:33:18;;;;;;;12.13;5.60;;;;;;;-146.18;100.00;67994.34;10097792;28;20058;-76
2023/04/26 09:38:16;;;;;;;9.70;6.47;;;;;;;-146.18;100.00;67994.34;10098546;28;20059;-76
2023/04/26 09:43:18;;;;;;;7.97;5.57;;;;;;;-146.18;100.00;67994.34;10099122;28;20473;-76
2023/04/26 09:48:22;;;;;;;6.00;5.50;;;;;;;-146.18;100.00;67994.34;10104695;28;20074;-77
2023/04/26 09:53:40;;;;;;;9.20;5.82;;;;;;;-146.18;100.00;67994.34;10106271;28;20051;-76
2023/04/26 09:58:39;;;;;;;5.97;5.32;;;;;;;-146.18;100.00;67994.34;10094595;28;20074;-76
2023/04/26 10:03:36;;;;;;;6.60;5.88;;;;;;;-146.18;100.00;67994.34;10095307;28;20094;-76
2023/04/26 10:08:34;;;;;;;7.40;5.40;;;;;;;-146.18;100.00;67994.34;10088145;28;20051;-76
2023/04/26 10:13:33;;;;;;;6.55;5.45;;;;;;;-146.18;100.00;67994.34;10096534;28;20062;-76
2023/04/26 10:18:30;;;;;;;8.38;5.30;;;;;;;-146.18;100.00;67994.34;10100447;28;20513;-76
2023/04/26 10:23:28;;;;;;;7.45;5.60;;;;;;;-146.18;100.00;67994.34;10101205;28;20117;-75
2023/04/26 10:28:40;;;;;;;9.55;5.47;;;;;;;-146.18;100.00;67994.34;10092312;28;20454;-75
2023/04/26 10:33:36;;;;;;;7.00;5.30;;;;;;;-146.18;100.00;67994.34;10094474;28;20077;-75
2023/04/26 10:38:36;;;;;;;7.10;5.35;;;;;;;-146.18;100.00;67994.34;10109607;28;20638;-75
2023/04/26 10:43:32;;;;;;;6.57;5.65;;;;;;;-146.18;100.00;67994.34;10097074;28;20130;-76
2023/04/26 10:48:30;;;;;;;8.43;5.53;;;;;;;-146.18;100.00;67994.34;10104819;28;20066;-76
2023/04/26 10:53:52;;;;;;;6.55;5.40;;;;;;;-146.18;100.00;67994.34;10101204;28;20070;-75
2023/04/26 10:59:10;;;;;;;8.60;5.40;;;;;;;-146.18;100.00;67994.34;10096035;28;20082;-75
2023/04/26 11:04:11;;;;;;;6.35;5.30;;;;;;;-146.18;100.00;67994.34;10099454;28;20183;-75
2023/04/26 11:09:40;;;;;;;9.10;5.65;;;;;;;-146.18;100.00;67994.34;10101774;28;20081;-75
2023/04/26 11:14:37;;;;;;;6.55;5.90;;;;;;;-146.18;100.00;67994.34;10100069;28;20503;-75
2023/04/26 11:19:34;;;;;;;6.88;5.00;;;;;;;-146.18;100.00;67994.34;10097650;28;20698;-75
2023/04/26 11:24:31;;;;;;;11.50;5.25;;;;;;;-146.18;100.00;67994.34;10099210;28;20081;-75
2023/04/26 11:29:28;;;;;;;5.95;4.97;;;;;;;-146.18;100.00;67994.34;10091759;28;20051;-75
2023/04/26 11:34:31;;;;;;;12.35;5.40;;;;;;;-146.18;100.00;67994.34;10111285;28;20129;-75
2023/04/26 11:39:29;;;;;;;11.32;4.82;;;;;;;-146.18;100.00;67994.34;10108003;28;20518;-75
2023/04/26 11:44:26;;;;;;;6.63;4.50;;;;;;;-146.18;100.00;67994.34;10107655;28;20054;-75
2023/04/26 11:49:23;;;;;;;5.78;5.20;;;;;;;-146.18;100.00;67994.34;10107539;28;22255;-75
2023/04/26 11:54:33;;;;;;;6.80;4.63;;;;;;;-146.18;100.00;67994.34;10108086;28;20258;-75
2023/04/26 11:59:30;;;;;;;5.35;4.82;;;;;;;-146.18;100.00;67994.34;10100209;28;20142;-75
2023/04/26 12:04:31;;;;;;;10.38;5.20;;;;;;;-146.18;100.00;67994.34;10108857;28;20067;-75
2023/04/26 12:09:28;;;;;;;5.63;4.75;;;;;;;-146.18;100.00;67994.34;10097286;28;20042;-77
2023/04/26 12:14:34;;;;;;;6.28;5.00;;;;;;;-146.18;100.00;67994.34;10109908;28;20405;-75
2023/04/26 12:19:35;;;;;;;5.20;4.70;;;;;;;-146.18;100.00;67994.34;10091230;28;20130;-75
2023/04/26 12:24:34;;;;;;;6.40;4.93;;;;;;;-146.18;100.00;67994.34;10105755;28;20531;-75
2023/04/26 12:29:31;;;;;;;5.50;4.30;;;;;;;-146.18;100.00;67994.34;10105367;28;20082;-75
2023/04/26 12:34:28;;;;;;;6.72;4.57;;;;;;;-146.18;100.00;67994.34;10107665;28;20106;-75
2023/04/26 12:39:25;;;;;;;5.68;4.72;;;;;;;-146.18;100.00;67994.34;10100704;28;20054;-75
2023/04/26 12:44:22;;;;;;;5.70;4.28;;;;;;;-146.18;100.00;67994.34;10102153;28;20070;-74
2023/04/26 12:49:18;;;;;;;10.60;5.22;;;;;;;-146.18;100.00;67994.34;10109422;28;20045;-74
2023/04/26 12:54:15;;;;;;;6.28;4.57;;;;;;;-146.18;100.00;67994.34;10113735;28;20055;-74
2023/04/26 12:59:11;;;;;;;6.80;4.53;;;;;;;-146.18;100.00;67994.34;10108611;28;20051;-74
2023/04/26 13:04:08;;;;;;;7.65;5.20;;;;;;;-146.18;100.00;67994.34;10098116;28;20086;-74
2023/04/26 13:09:07;;;;;;;7.03;4.70;;;;;;;-146.18;100.00;67994.34;10097138;28;20097;-76
2023/04/26 13:14:05;;;;;;;5.82;4.78;;;;;;;-146.18;100.00;67994.34;10120717;28;20113;-75
2023/04/26 13:19:02;;;;;;;7.63;5.00;;;;;;;-146.18;100.00;67994.34;10100169;28;20078;-75
2023/04/26 13:23:58;;;;;;;6.28;4.35;;;;;;;-146.18;100.00;67994.34;10104732;28;20464;-75
2023/04/26 13:28:55;;;;;;;8.45;4.65;;;;;;;-146.18;100.00;67994.34;10110069;28;20103;-75
2023/04/26 13:33:51;;;;;;;6.40;5.03;;;;;;;-146.18;100.00;67994.34;10097356;28;20640;-75
2023/04/26 13:38:48;;;;;;;10.55;5.32;;;;;;;-146.18;100.00;67994.34;10101949;28;20066;-76
2023/04/26 13:43:44;;;;;;;7.55;4.75;;;;;;;-146.18;100.00;67994.34;10109185;28;20493;-77
2023/04/26 13:48:41;;;;;;;6.20;4.57;;;;;;;-146.18;100.00;67994.34;10100671;28;20043;-76
2023/04/26 13:53:37;;;;;;;8.05;4.30;;;;;;;-146.18;100.00;67994.34;10104837;28;20501;-76
2023/04/26 13:58:34;;;;;;;8.38;4.95;;;;;;;-146.18;100.00;67994.34;10098460;28;20452;-76
2023/04/26 14:03:32;;;;;;;8.55;5.63;;;;;;;-146.18;100.00;67994.34;10108303;28;20054;-76
2023/04/26 14:08:28;;;;;;;7.22;5.25;;;;;;;-146.18;100.00;67994.34;10096950;28;20747;-77
2023/04/26 14:13:25;;;;;;;7.93;5.53;;;;;;;-146.18;100.00;67994.34;10095636;28;20487;-76
2023/04/26 14:18:22;;;;;;;5.60;4.93;;;;;;;-146.18;100.00;67994.34;10102117;28;20125;-76
2023/04/26 14:23:18;;;;;;;6.43;4.60;;;;;;;-146.18;100.00;67994.34;10096279;28;20501;-76
2023/04/26 14:28:15;;;;;;;7.72;4.80;;;;;;;-146.18;100.00;67994.34;10094585;28;20081;-76
2023/04/26 14:33:12;;;;;;;6.57;4.63;;;;;;;-146.18;100.00;67994.34;10097168;28;20071;-77
2023/04/26 14:38:08;;;;;;;6.03;4.85;;;;;;;-146.18;100.00;67994.34;10096776;28;20058;-75
2023/04/26 14:43:05;;;;;;;7.43;5.10;;;;;;;-146.18;100.00;67994.34;10097410;28;20082;-75
2023/04/26 14:48:01;;;;;;;6.05;5.40;;;;;;;-146.18;100.00;67994.34;10109421;28;20416;-76
2023/04/26 14:52:58;;;;;;;6.00;5.10;;;;;;;-146.18;100.00;67994.34;10093100;28;20055;-76
2023/04/26 14:57:58;;;;;;;6.57;4.95;;;;;;;-146.18;100.00;67994.34;10102817;28;20043;-77
2023/04/26 15:02:55;;;;;;;9.95;5.80;;;;;;;-146.18;100.00;67994.34;10095301;28;20129;-74
2023/04/26 15:07:51;;;;;;;5.55;4.97;;;;;;;-146.18;100.00;67994.34;10095498;28;20054;-74
2023/04/26 15:12:48;;;;;;;7.40;5.30;;;;;;;-146.18;100.00;67994.34;10096086;28;20489;-77
2023/04/26 15:17:44;;;;;;;7.78;5.97;;;;;;;-146.18;100.00;67994.34;10100942;28;20353;-75
2023/04/26 15:22:41;;;;;;;12.02;7.15;;;;;;;-146.18;100.00;67994.34;10087528;28;20784;-75
2023/04/26 15:27:38;;;;;;;5.45;4.93;;;;;;;-146.18;100.00;67994.34;10105161;28;20056;-75
2023/04/26 15:32:34;;;;;;;9.50;6.07;;;;;;;-146.18;100.00;67994.34;10100880;28;20058;-76
2023/04/26 15:37:31;;;;;;;6.18;5.57;;;;;;;-146.18;100.00;67994.34;10104956;28;20098;-76
2023/04/26 15:42:29;;;;;;;7.45;5.30;;;;;;;-146.18;100.00;67994.34;10098494;28;20050;-75
2023/04/26 15:47:26;;;;;;;8.38;5.38;;;;;;;-146.18;100.00;67994.34;10098857;28;20134;-76
2023/04/26 15:52:22;;;;;;;7.55;5.50;;;;;;;-146.18;100.00;67994.34;10108032;28;20062;-76
2023/04/26 15:57:18;;;;;;;5.63;4.57;;;;;;;-146.18;100.00;67994.34;10098710;28;20493;-76
2023/04/26 16:02:15;;;;;;;8.38;4.90;;;;;;;-146.18;100.00;67994.34;10101046;28;20505;-76
2023/04/26 16:07:13;;;;;;;6.47;5.07;;;;;;;-146.18;100.00;67994.34;10095657;28;20078;-75
2023/04/26 16:12:09;;;;;;;7.55;5.10;;;;;;;-146.18;100.00;67994.34;10086833;28;20086;-76
2023/04/26 16:17:11;;;;;;;9.55;5.38;;;;;;;-146.18;100.00;67994.34;10097980;28;20074;-75
2023/04/26 16:22:08;;;;;;;7.10;4.75;;;;;;;-146.18;100.00;67994.34;10094229;28;20417;-75
2023/04/26 16:27:04;;;;;;;11.30;5.05;;;;;;;-146.18;100.00;67994.34;10114224;28;20050;-75
2023/04/26 16:32:01;;;;;;;8.57;4.50;;;;;;;-146.18;100.00;67994.34;10108696;28;20097;-75
2023/04/26 16:36:57;;;;;;;6.18;5.07;;;;;;;-146.18;100.00;67994.34;10109754;28;20054;-74
2023/04/26 16:41:54;;;;;;;6.47;4.93;;;;;;;-146.18;100.00;67994.34;10097287;28;20094;-74
2023/04/26 16:46:50;;;;;;;8.65;5.43;;;;;;;-146.18;100.00;67994.34;10104119;28;20069;-75
2023/04/26 16:51:53;;;;;;;7.53;4.88;;;;;;;-146.18;100.00;67994.34;10105263;28;20512;-74
2023/04/26 16:56:50;;;;;;;6.90;4.78;;;;;;;-146.18;100.00;67994.34;10098977;28;20041;-75
2023/04/26 17:01:47;;;;;;;10.00;5.75;;;;;;;-146.18;100.00;67994.34;10102203;28;20046;-75
2023/04/26 17:06:44;;;;;;;8.10;4.70;;;;;;;-146.18;100.00;67994.34;10100439;28;20484;-75
2023/04/26 17:11:42;;;;;;;8.45;4.95;;;;;;;-146.18;100.00;67994.34;10098557;28;20489;-75
2023/04/26 17:16:38;;;;;;;4.93;4.22;;;;;;;-146.18;100.00;67994.34;10107769;28;20039;-75
2023/04/26 17:21:35;;;;;;;4.85;4.30;;;;;;;-146.18;100.00;67994.34;10096622;28;20501;-75
2023/04/26 17:26:32;;;;;;;7.05;4.38;;;;;;;-146.18;100.00;67994.34;10107206;28;20036;-75
2023/04/26 17:31:28;;;;;;;7.15;5.00;;;;;;;-146.18;100.00;67994.34;10091156;28;20118;-74
2023/04/26 17:36:25;;;;;;;9.05;5.05;;;;;;;-146.18;100.00;67994.34;10098746;28;20039;-75
2023/04/26 17:41:22;;;;;;;8.30;4.90;;;;;;;-146.18;100.00;67994.34;10095094;28;20051;-74
2023/04/26 17:46:18;;;;;;;9.30;5.50;;;;;;;-146.18;100.00;67994.34;10099230;28;20062;-75
2023/04/26 17:51:15;;;;;;;8.73;5.95;;;;;;;-146.18;100.00;67994.34;10102993;28;20058;-75
2023/04/26 17:56:11;;;;;;;6.03;4.10;;;;;;;-146.18;100.00;67994.34;10093666;28;20097;-75
2023/04/26 18:01:08;;;;;;;12.52;6.70;;;;;;;-146.18;100.00;67994.34;10103601;28;20059;-75
2023/04/26 18:06:05;;;;;;;10.40;4.60;;;;;;;-146.18;100.00;67994.34;10109105;28;20485;-75
2023/04/26 18:11:01;;;;;;;10.15;5.55;;;;;;;-146.18;100.00;67994.34;10101867;28;20047;-75
2023/04/26 18:15:58;;;;;;;8.52;6.03;;;;;;;-146.18;100.00;67994.34;10091943;28;20117;-76
2023/04/26 18:20:55;;;;;;;11.52;6.03;;;;;;;-146.18;100.00;67994.34;10100153;28;20146;-75
2023/04/26 18:25:51;;;;;;;7.20;5.22;;;;;;;-146.18;100.00;67994.34;10105639;28;20046;-75
2023/04/26 18:30:48;;;;;;;10.32;5.03;;;;;;;-146.18;100.00;67994.34;10099798;28;20042;-75
2023/04/26 18:35:47;;;;;;;11.63;5.20;;;;;;;-146.18;100.00;67994.34;10087603;28;20059;-75
2023/04/26 18:40:44;;;;;;;7.80;5.30;;;;;;;-146.18;100.00;67994.34;10102184;28;20503;-75
2023/04/26 18:45:41;;;;;;;13.68;4.90;;;;;;;-146.18;100.00;67994.34;10105600;28;20501;-75
2023/04/26 18:50:37;;;;;;;9.38;5.07;;;;;;;-146.18;100.00;67994.34;10097972;28;20053;-75
2023/04/26 18:55:34;;;;;;;7.63;4.90;;;;;;;-146.18;100.00;67994.34;10099761;28;20129;-75
2023/04/26 19:00:31;;;;;;;9.23;4.57;;;;;;;-146.18;100.00;67994.34;10099119;28;20058;-75
2023/04/26 19:05:27;;;;;;;7.72;5.10;;;;;;;-146.18;100.00;67994.34;10097135;28;20671;-75
2023/04/26 19:10:24;;;;;;;8.80;4.97;;;;;;;-146.18;100.00;67994.34;10090939;28;20050;-75
2023/04/26 19:15:20;;;;;;;9.68;4.82;;;;;;;-146.18;100.00;67994.34;10099570;28;20055;-75
2023/04/26 19:20:20;;;;;;;16.10;4.90;;;;;;;-146.18;100.00;67994.34;10099574;28;20081;-75
2023/04/26 19:25:21;;;;;;;9.15;4.65;;;;;;;-146.18;100.00;67994.34;10104785;28;20074;-75
2023/04/26 19:30:18;;;;;;;8.98;4.75;;;;;;;-146.18;100.00;67994.34;10084734;28;20458;-75
2023/04/26 19:35:14;;;;;;;11.18;5.30;;;;;;;-146.18;100.00;67994.34;10101003;28;20058;-75
2023/04/26 19:40:11;;;;;;;14.85;5.45;;;;;;;-146.18;100.00;67994.34;10101681;28;20049;-75
2023/04/26 19:45:07;;;;;;;8.43;5.22;;;;;;;-146.18;100.00;67994.34;10093966;28;20074;-75
2023/04/26 19:50:05;;;;;;;9.20;6.15;;;;;;;-146.18;100.00;67994.34;10090789;28;20105;-75
2023/04/26 19:55:04;;;;;;;10.55;5.85;;;;;;;-146.18;100.00;67994.34;10107617;28;20485;-75
2023/04/26 20:00:00;;;;;;;12.32;5.93;;;;;;;-146.18;100.00;67994.34;10102982;28;20708;-75
2023/04/26 20:04:57;;;;;;;12.30;5.82;;;;;;;-146.18;100.00;67994.34;10107833;28;20065;-75
2023/04/26 20:09:53;;;;;;;6.50;5.18;;;;;;;-146.18;100.00;67994.34;10101228;28;20236;-75
2023/04/26 20:14:50;;;;;;;6.40;5.00;;;;;;;-146.18;100.00;67994.34;10109765;28;20070;-75
2023/04/26 20:19:47;;;;;;;13.55;5.28;;;;;;;-146.18;100.00;67994.34;10108429;28;20074;-76
2023/04/26 20:24:44;;;;;;;9.05;5.80;;;;;;;-146.18;100.00;67994.34;10101815;28;20729;-74
2023/04/26 20:29:41;;;;;;;10.73;6.35;;;;;;;-146.18;100.00;67994.34;10105535;28;20160;-70
2023/04/26 20:34:37;;;;;;;8.30;4.97;;;;;;;-146.18;100.00;67994.34;10105845;28;20046;-73
2023/04/26 20:39:34;;;;;;;8.65;5.55;;;;;;;-146.18;100.00;67994.34;10109321;28;20153;-73
2023/04/26 20:44:30;;;;;;;10.77;5.13;;;;;;;-146.18;100.00;67994.34;10113887;28;20104;-73
2023/04/26 20:49:27;;;;;;;9.93;5.30;;;;;;;-146.18;100.00;67994.34;10105328;28;20497;-72
2023/04/26 20:54:24;;;;;;;7.13;5.25;;;;;;;-146.18;100.00;67994.34;10109709;28;20075;-72
2023/04/26 20:59:22;;;;;;;9.85;5.30;;;;;;;-146.18;100.00;67994.34;10096960;28;20106;-71
2023/04/26 21:04:20;;;;;;;17.58;6.40;;;;;;;-146.18;100.00;67994.34;10112257;28;20531;-71
2023/04/26 21:09:17;;;;;;;9.95;4.68;;;;;;;-146.18;100.00;67994.34;10109073;28;20043;-71
2023/04/26 21:14:14;;;;;;;8.50;4.68;;;;;;;-146.18;100.00;67994.34;10109596;28;20097;-71
2023/04/26 21:19:10;;;;;;;5.97;4.93;;;;;;;-146.18;100.00;67994.34;10112885;28;20074;-71
2023/04/26 21:24:07;;;;;;;8.93;4.93;;;;;;;-146.18;100.00;67994.34;10112172;28;20078;-71
2023/04/26 21:29:03;;;;;;;10.90;4.90;;;;;;;-146.18;100.00;67994.34;10105879;28;20086;-71
2023/04/26 21:34:00;;;;;;;7.13;4.65;;;;;;;-146.18;100.00;67994.34;10111752;28;20165;-72
2023/04/26 21:38:57;;;;;;;8.45;4.70;;;;;;;-146.18;100.00;67994.34;10108799;28;20051;-72
2023/04/26 21:43:54;;;;;;;10.07;5.32;;;;;;;-146.18;100.00;67994.34;10102278;28;20527;-73
2023/04/26 21:48:51;;;;;;;8.50;4.88;;;;;;;-146.18;100.00;67994.34;10098675;28;20164;-72
2023/04/26 21:53:47;;;;;;;12.60;5.57;;;;;;;-146.18;100.00;67994.34;10105093;28;20047;-70
2023/04/26 21:58:44;;;;;;;6.75;4.72;;;;;;;-146.18;100.00;67994.34;10112515;28;20069;-70
2023/04/26 22:03:40;;;;;;;8.55;5.28;;;;;;;-146.18;100.00;67994.34;10109473;28;20150;-73
2023/04/26 22:08:37;;;;;;;6.32;5.15;;;;;;;-146.18;100.00;67994.34;10110696;28;20039;-71
2023/04/26 22:13:34;;;;;;;8.68;4.85;;;;;;;-146.18;100.00;67994.34;10099887;28;20070;-67